createdAt,value
2023-05-07T00:00:35.531Z,72.34
2023-05-07T00:01:55.238Z,72.21
2023-05-07T00:02:58.461Z,72.26
2023-05-07T00:04:01.762Z,72.17
2023-05-07T00:05:05.266Z,72.02
2023-05-07T00:06:08.217Z,72.05
2023-05-07T00:07:11.614Z,71.94
2023-05-07T00:08:14.623Z,71.97
2023-05-07T00:09:17.687Z,71.75
2023-05-07T00:10:20.873Z,71.63
2023-05-07T00:11:23.941Z,71.67
2023-05-07T00:12:26.862Z,71.61
2023-05-07T00:13:31.798Z,71.44
2023-05-07T00:14:34.676Z,71.37
2023-05-07T00:15:37.510Z,71.23
2023-05-07T00:16:40.402Z,71.13
2023-05-07T00:17:43.288Z,71.16
2023-05-07T00:18:47.265Z,71.21
2023-05-07T00:19:50.133Z,71.13
2023-05-07T00:20:52.950Z,70.97
2023-05-07T00:21:56.923Z,70.88
2023-05-07T00:22:59.709Z,70.63
2023-05-07T00:24:02.588Z,70.61
2023-05-07T00:25:06.896Z,70.50
2023-05-07T00:26:09.926Z,70.46
2023-05-07T00:27:12.868Z,70.42
2023-05-07T00:28:15.766Z,70.36
2023-05-07T00:29:18.923Z,70.25
2023-05-07T00:30:21.749Z,70.12
2023-05-07T00:31:24.974Z,70.08
2023-05-07T00:32:27.937Z,70.04
2023-05-07T00:33:30.983Z,69.98
2023-05-07T00:34:33.939Z,69.85
2023-05-07T00:35:37.124Z,69.77
2023-05-07T00:36:39.923Z,69.58
2023-05-07T00:37:42.809Z,69.73
2023-05-07T00:38:45.699Z,69.48
2023-05-07T00:39:48.532Z,69.44
2023-05-07T00:40:52.553Z,69.44
2023-05-07T00:41:55.653Z,69.29
2023-05-07T00:42:59.694Z,69.17
2023-05-07T00:44:03.655Z,69.11
2023-05-07T00:45:07.539Z,69.02
2023-05-07T00:46:11.285Z,69.15
2023-05-07T00:47:15.535Z,68.95
2023-05-07T00:48:19.610Z,68.92
2023-05-07T00:49:22.898Z,69.12
2023-05-07T00:50:27.758Z,68.88
2023-05-07T00:51:31.202Z,68.69
2023-05-07T00:52:34.323Z,68.73
2023-05-07T00:53:37.343Z,68.64
2023-05-07T00:54:42.295Z,68.63
2023-05-07T00:55:45.474Z,68.51
2023-05-07T00:56:48.898Z,68.52
2023-05-07T00:57:52.165Z,68.48
2023-05-07T00:58:55.999Z,68.26
2023-05-07T00:59:58.955Z,68.33
2023-05-07T01:01:01.963Z,68.24
2023-05-07T01:02:05.204Z,68.24
2023-05-07T01:03:08.498Z,68.26
2023-05-07T01:04:12.041Z,68.28
2023-05-07T01:05:17.520Z,68.13
2023-05-07T01:06:22.614Z,68.12
2023-05-07T01:07:25.962Z,68.06
2023-05-07T01:08:30.650Z,68.09
2023-05-07T01:09:33.970Z,67.94
2023-05-07T01:10:36.942Z,67.99
2023-05-07T01:11:41.614Z,67.98
2023-05-07T01:12:46.907Z,68.10
2023-05-07T01:13:51.816Z,67.95
2023-05-07T01:14:55.186Z,67.85
2023-05-07T01:15:57.990Z,67.84
2023-05-07T01:17:01.157Z,67.87
2023-05-07T01:18:04.187Z,67.90
2023-05-07T01:19:12.158Z,67.94
2023-05-07T01:20:15.423Z,67.71
2023-05-07T01:21:19.285Z,67.67
2023-05-07T01:22:33.049Z,67.74
2023-05-07T01:23:36.862Z,67.71
2023-05-07T01:24:39.742Z,67.66
2023-05-07T01:25:43.274Z,67.58
2023-05-07T01:26:46.337Z,67.68
2023-05-07T01:27:50.809Z,67.65
2023-05-07T01:28:53.726Z,67.63
2023-05-07T01:29:56.837Z,67.47
2023-05-07T01:33:09.337Z,67.43
2023-05-07T01:34:14.278Z,67.69
2023-05-07T01:35:21.397Z,67.66
2023-05-07T01:36:27.011Z,67.69
2023-05-07T01:37:30.479Z,67.61
2023-05-07T01:38:34.238Z,67.58
2023-05-07T01:39:39.073Z,67.62
2023-05-07T01:40:43.029Z,67.55
2023-05-07T01:41:46.657Z,67.66
2023-05-07T01:42:49.707Z,67.52
2023-05-07T01:43:54.806Z,67.41
2023-05-07T01:44:57.658Z,67.49
2023-05-07T01:46:02.439Z,67.50
2023-05-07T01:47:06.243Z,67.65
2023-05-07T01:48:13.925Z,67.74
2023-05-07T01:49:17.974Z,67.65
2023-05-07T01:50:22.077Z,67.56
2023-05-07T01:51:28.110Z,67.77
2023-05-07T01:52:32.399Z,67.92
2023-05-07T01:53:39.214Z,67.91
2023-05-07T01:54:42.851Z,68.08
2023-05-07T01:55:46.289Z,67.90
2023-05-07T01:56:49.999Z,67.84
2023-05-07T01:57:53.227Z,67.78
2023-05-07T01:58:56.148Z,68.07
2023-05-07T01:59:59.160Z,68.19
2023-05-07T02:01:02.064Z,68.22
2023-05-07T02:02:05.594Z,68.08
2023-05-07T02:03:09.793Z,68.38
2023-05-07T02:04:21.497Z,68.29
2023-05-07T02:05:24.779Z,68.34
2023-05-07T02:06:38.368Z,68.33
2023-05-07T02:07:42.531Z,68.29
2023-05-07T02:08:45.755Z,68.47
2023-05-07T02:09:49.675Z,68.59
2023-05-07T02:10:53.001Z,68.68
2023-05-07T02:11:56.203Z,68.58
2023-05-07T02:13:00.771Z,68.50
2023-05-07T02:14:03.728Z,68.65
2023-05-07T02:15:07.278Z,68.75
2023-05-07T02:16:11.835Z,68.73
2023-05-07T02:17:15.419Z,68.68
2023-05-07T02:18:18.883Z,69.20
2023-05-07T02:19:22.231Z,69.20
2023-05-07T02:20:25.594Z,69.06
2023-05-07T02:21:31.044Z,69.08
2023-05-07T02:22:35.721Z,69.05
2023-05-07T02:23:38.784Z,69.31
2023-05-07T02:24:41.750Z,69.20
2023-05-07T02:25:44.868Z,69.23
2023-05-07T02:26:48.042Z,69.20
2023-05-07T02:27:50.965Z,69.68
2023-05-07T02:28:54.953Z,69.24
2023-05-07T02:29:58.290Z,69.30
2023-05-07T02:31:01.815Z,69.28
2023-05-07T02:32:05.220Z,69.50
2023-05-07T02:33:09.600Z,69.54
2023-05-07T02:34:13.150Z,69.28
2023-05-07T02:35:16.236Z,69.51
2023-05-07T02:36:19.382Z,69.57
2023-05-07T02:37:28.348Z,69.25
2023-05-07T02:38:31.306Z,69.65
2023-05-07T02:39:34.454Z,69.81
2023-05-07T02:40:40.380Z,69.70
2023-05-07T02:41:43.350Z,69.68
2023-05-07T02:42:46.237Z,69.93
2023-05-07T02:43:49.559Z,69.84
2023-05-07T02:44:53.053Z,70.20
2023-05-07T02:46:06.510Z,69.92
2023-05-07T02:47:11.400Z,69.83
2023-05-07T02:48:14.761Z,69.93
2023-05-07T02:49:17.648Z,69.92
2023-05-07T02:50:20.778Z,70.16
2023-05-07T02:51:25.959Z,70.13
2023-05-07T02:52:29.450Z,70.28
2023-05-07T02:53:32.651Z,70.33
2023-05-07T02:54:35.555Z,70.27
2023-05-07T02:55:38.524Z,70.25
2023-05-07T02:56:41.485Z,70.33
2023-05-07T02:57:44.352Z,70.42
2023-05-07T02:58:47.740Z,70.28
2023-05-07T02:59:51.783Z,70.60
2023-05-07T03:00:58.406Z,70.39
2023-05-07T03:02:08.943Z,70.59
2023-05-07T03:03:11.967Z,70.76
2023-05-07T03:04:15.147Z,70.53
2023-05-07T03:05:18.355Z,70.71
2023-05-07T03:06:21.217Z,70.83
2023-05-07T03:07:24.165Z,70.80
2023-05-07T03:08:27.062Z,70.85
2023-05-07T03:09:30.145Z,70.84
2023-05-07T03:10:33.066Z,71.00
2023-05-07T03:11:36.814Z,71.23
2023-05-07T03:12:39.820Z,71.04
2023-05-07T03:13:42.656Z,71.32
2023-05-07T03:14:45.721Z,71.22
2023-05-07T03:15:48.578Z,71.17
2023-05-07T03:16:51.560Z,71.43
2023-05-07T03:17:54.517Z,71.26
2023-05-07T03:18:57.829Z,71.38
2023-05-07T03:20:01.281Z,71.56
2023-05-07T03:21:05.164Z,71.55
2023-05-07T03:22:08.178Z,71.75
2023-05-07T03:23:11.128Z,71.43
2023-05-07T03:24:14.076Z,71.88
2023-05-07T03:25:17.058Z,71.64
2023-05-07T03:26:19.979Z,71.71
2023-05-07T03:27:23.151Z,71.18
2023-05-07T03:28:27.968Z,71.66
2023-05-07T03:29:34.573Z,71.39
2023-05-07T03:30:37.635Z,71.50
2023-05-07T03:31:40.627Z,71.62
2023-05-07T03:32:44.724Z,71.55
2023-05-07T03:33:58.628Z,71.62
2023-05-07T03:35:03.569Z,71.59
2023-05-07T03:36:15.587Z,71.75
2023-05-07T03:37:19.327Z,71.99
2023-05-07T03:38:22.230Z,71.69
2023-05-07T03:39:25.371Z,71.78
2023-05-07T03:40:28.340Z,71.90
2023-05-07T03:41:33.704Z,72.11
2023-05-07T03:42:37.075Z,71.70
2023-05-07T03:43:40.076Z,71.82
2023-05-07T03:44:44.751Z,71.96
2023-05-07T03:45:47.762Z,71.85
2023-05-07T03:46:56.237Z,71.95
2023-05-07T03:47:59.346Z,71.72
2023-05-07T03:49:02.387Z,71.75
2023-05-07T03:50:06.246Z,71.97
2023-05-07T03:51:09.190Z,72.02
2023-05-07T03:52:13.195Z,72.44
2023-05-07T03:53:16.284Z,72.08
2023-05-07T03:54:19.477Z,72.21
2023-05-07T03:55:22.998Z,72.06
2023-05-07T03:56:29.222Z,72.32
2023-05-07T03:57:33.329Z,72.18
2023-05-07T03:58:36.350Z,71.93
2023-05-07T03:59:43.493Z,72.33
2023-05-07T04:00:46.798Z,72.33
2023-05-07T04:01:56.877Z,72.38
2023-05-07T04:03:00.607Z,71.96
2023-05-07T04:04:06.581Z,72.08
2023-05-07T04:05:10.915Z,71.92
2023-05-07T04:06:14.722Z,72.48
2023-05-07T04:07:19.695Z,71.86
2023-05-07T04:08:25.522Z,72.20
2023-05-07T04:09:30.314Z,72.21
2023-05-07T04:10:33.634Z,72.38
2023-05-07T04:11:41.133Z,72.14
2023-05-07T04:12:46.195Z,72.44
2023-05-07T04:13:52.620Z,72.49
2023-05-07T04:14:57.310Z,72.48
2023-05-07T04:16:02.953Z,72.28
2023-05-07T04:17:08.211Z,72.65
2023-05-07T04:18:11.301Z,72.44
2023-05-07T04:19:14.553Z,72.75
2023-05-07T04:20:18.688Z,72.54
2023-05-07T04:21:24.632Z,72.52
2023-05-07T04:22:27.875Z,72.32
2023-05-07T04:23:31.702Z,72.46
2023-05-07T04:24:36.894Z,72.80
2023-05-07T04:25:40.330Z,72.58
2023-05-07T04:26:47.329Z,72.78
2023-05-07T04:27:51.680Z,72.90
2023-05-07T04:28:54.696Z,72.61
2023-05-07T04:29:57.724Z,72.96
2023-05-07T04:31:01.594Z,72.81
2023-05-07T04:32:05.323Z,72.73
2023-05-07T04:33:08.712Z,72.87
2023-05-07T04:34:12.658Z,72.95
2023-05-07T04:35:15.815Z,73.03
2023-05-07T04:36:19.105Z,73.02
2023-05-07T04:37:29.457Z,72.47
2023-05-07T04:38:32.859Z,72.89
2023-05-07T04:39:36.459Z,72.85
2023-05-07T04:40:40.250Z,72.82
2023-05-07T04:41:43.646Z,72.81
2023-05-07T04:42:46.716Z,72.43
2023-05-07T04:43:50.635Z,72.38
2023-05-07T04:44:54.391Z,72.74
2023-05-07T04:45:57.791Z,72.75
2023-05-07T04:47:01.750Z,72.66
2023-05-07T04:48:05.427Z,72.33
2023-05-07T04:49:08.877Z,72.71
2023-05-07T04:50:12.166Z,72.45
2023-05-07T04:51:16.321Z,72.69
2023-05-07T04:52:19.228Z,72.62
2023-05-07T04:53:22.851Z,72.68
2023-05-07T04:54:26.424Z,72.39
2023-05-07T04:55:29.541Z,72.65
2023-05-07T04:56:32.636Z,72.63
2023-05-07T04:57:35.926Z,72.48
2023-05-07T04:58:39.101Z,72.32
2023-05-07T04:59:42.022Z,72.59
2023-05-07T05:00:44.939Z,72.40
2023-05-07T05:01:48.129Z,72.46
2023-05-07T05:02:51.391Z,72.38
2023-05-07T05:03:56.131Z,72.19
2023-05-07T05:05:00.122Z,72.21
2023-05-07T05:06:03.009Z,72.07
2023-05-07T05:07:08.640Z,72.04
2023-05-07T05:08:11.639Z,72.13
2023-05-07T05:09:16.225Z,71.97
2023-05-07T05:10:19.524Z,71.94
2023-05-07T05:11:22.673Z,71.92
2023-05-07T05:12:26.442Z,71.86
2023-05-07T05:13:29.632Z,71.68
2023-05-07T05:14:32.490Z,71.51
2023-05-07T05:15:35.670Z,71.51
2023-05-07T05:16:38.925Z,71.17
2023-05-07T05:17:42.253Z,71.08
2023-05-07T05:18:45.241Z,71.06
2023-05-07T05:19:49.115Z,71.21
2023-05-07T05:20:52.933Z,70.84
2023-05-07T05:21:56.181Z,70.63
2023-05-07T05:22:59.417Z,70.53
2023-05-07T05:24:02.277Z,70.11
2023-05-07T05:25:05.718Z,70.10
2023-05-07T05:26:08.880Z,70.01
2023-05-07T05:27:12.275Z,69.83
2023-05-07T05:28:15.243Z,69.40
2023-05-07T05:29:18.104Z,69.53
2023-05-07T05:30:23.191Z,69.21
2023-05-07T05:31:26.754Z,68.96
2023-05-07T05:32:29.596Z,68.47
2023-05-07T05:33:33.508Z,68.29
2023-05-07T05:34:39.468Z,68.52
2023-05-07T05:35:43.275Z,68.72
2023-05-07T05:36:48.164Z,68.48
2023-05-07T05:37:51.896Z,67.77
2023-05-07T05:38:55.166Z,67.56
2023-05-07T05:39:58.528Z,67.27
2023-05-07T05:41:02.597Z,66.71
2023-05-07T05:42:06.271Z,66.31
2023-05-07T05:43:10.964Z,66.40
2023-05-07T05:44:14.189Z,66.16
2023-05-07T05:45:18.690Z,65.36
2023-05-07T05:46:21.859Z,65.30
2023-05-07T05:47:26.967Z,64.66
2023-05-07T05:48:31.878Z,64.20
2023-05-07T05:49:36.426Z,64.67
2023-05-07T05:50:40.456Z,64.07
2023-05-07T05:51:44.739Z,63.95
2023-05-07T05:52:47.615Z,63.64
2023-05-07T05:53:50.947Z,63.36
2023-05-07T05:54:54.825Z,62.79
2023-05-07T05:55:57.842Z,62.70
2023-05-07T05:57:01.268Z,62.54
2023-05-07T05:58:04.293Z,62.08
2023-05-07T05:59:08.703Z,61.78
2023-05-07T06:00:12.406Z,61.35
2023-05-07T06:01:21.472Z,60.91
2023-05-07T06:02:25.413Z,60.86
2023-05-07T06:03:28.864Z,60.54
2023-05-07T06:04:32.364Z,60.65
2023-05-07T06:05:35.398Z,60.62
2023-05-07T06:06:38.619Z,60.16
2023-05-07T06:07:41.905Z,60.06
2023-05-07T06:08:44.794Z,59.57
2023-05-07T06:09:48.768Z,59.61
2023-05-07T06:10:52.142Z,59.52
2023-05-07T06:11:55.382Z,59.81
2023-05-07T06:12:58.746Z,60.37
2023-05-07T06:14:01.800Z,60.11
2023-05-07T06:15:05.603Z,60.00
2023-05-07T06:16:08.614Z,60.27
2023-05-07T06:17:11.825Z,60.43
2023-05-07T06:18:15.341Z,60.23
2023-05-07T06:19:23.983Z,60.40
2023-05-07T06:20:27.357Z,60.46
2023-05-07T06:21:31.428Z,60.52
2023-05-07T06:22:34.586Z,60.56
2023-05-07T06:23:37.727Z,60.28
2023-05-07T06:24:40.965Z,60.31
2023-05-07T06:25:50.974Z,60.44
2023-05-07T06:26:54.997Z,60.09
2023-05-07T06:27:58.177Z,60.38
2023-05-07T06:29:01.476Z,60.63
2023-05-07T06:30:05.159Z,60.32
2023-05-07T06:31:21.638Z,60.58
2023-05-07T06:32:31.434Z,60.52
2023-05-07T06:33:36.364Z,60.72
2023-05-07T06:34:40.932Z,60.63
2023-05-07T06:35:44.209Z,60.46
2023-05-07T06:36:47.200Z,60.31
2023-05-07T06:38:01.349Z,60.70
2023-05-07T06:39:05.369Z,60.37
2023-05-07T06:40:09.109Z,60.62
2023-05-07T06:41:16.243Z,60.54
2023-05-07T06:42:19.527Z,60.74
2023-05-07T06:43:24.092Z,60.71
2023-05-07T06:44:58.940Z,60.80
2023-05-07T06:46:02.687Z,60.77
2023-05-07T06:47:06.373Z,60.76
2023-05-07T06:48:09.892Z,60.72
2023-05-07T06:49:21.080Z,60.72
2023-05-07T06:50:25.071Z,61.06
2023-05-07T06:51:29.518Z,61.30
2023-05-07T06:52:33.734Z,61.16
2023-05-07T06:53:36.938Z,60.64
2023-05-07T06:54:40.575Z,61.35
2023-05-07T06:55:44.206Z,61.55
2023-05-07T06:56:48.099Z,60.87
2023-05-07T06:57:51.156Z,60.26
2023-05-07T06:58:54.857Z,60.35
2023-05-07T06:59:58.120Z,60.50
2023-05-07T07:01:01.183Z,60.03
2023-05-07T07:02:04.567Z,60.09
2023-05-07T07:03:08.116Z,60.07
2023-05-07T07:04:11.609Z,60.44
2023-05-07T07:05:14.840Z,60.38
2023-05-07T07:06:17.801Z,60.31
2023-05-07T07:07:20.863Z,60.17
2023-05-07T07:08:23.796Z,59.78
2023-05-07T07:09:27.382Z,59.85
2023-05-07T07:10:30.753Z,59.93
2023-05-07T07:11:33.722Z,60.09
2023-05-07T07:12:36.974Z,60.14
2023-05-07T07:13:41.156Z,59.62
2023-05-07T07:14:44.474Z,59.81
2023-05-07T07:15:47.714Z,60.17
2023-05-07T07:16:50.751Z,60.16
2023-05-07T07:17:54.359Z,59.67
2023-05-07T07:18:59.131Z,60.10
2023-05-07T07:20:02.290Z,59.81
2023-05-07T07:21:06.660Z,59.42
2023-05-07T07:22:10.034Z,59.92
2023-05-07T07:23:13.095Z,60.13
2023-05-07T07:24:22.516Z,59.89
2023-05-07T07:25:29.486Z,59.95
2023-05-07T07:26:32.438Z,59.89
2023-05-07T07:27:35.477Z,59.17
2023-05-07T07:28:48.040Z,59.57
2023-05-07T07:29:53.944Z,59.89
2023-05-07T07:30:56.800Z,59.67
2023-05-07T07:31:59.827Z,59.62
2023-05-07T07:33:04.303Z,59.39
2023-05-07T07:34:09.145Z,59.00
2023-05-07T07:35:12.033Z,58.87
2023-05-07T07:36:15.163Z,58.93
2023-05-07T07:37:18.538Z,58.88
2023-05-07T07:38:21.347Z,59.00
2023-05-07T07:39:24.326Z,58.49
2023-05-07T07:40:28.844Z,58.46
2023-05-07T07:41:31.654Z,58.26
2023-05-07T07:42:34.685Z,58.75
2023-05-07T07:43:37.911Z,58.58
2023-05-07T07:44:40.975Z,58.32
2023-05-07T07:45:45.239Z,58.04
2023-05-07T07:46:48.258Z,58.04
2023-05-07T07:47:51.568Z,57.62
2023-05-07T07:48:55.198Z,58.40
2023-05-07T07:49:58.452Z,58.53
2023-05-07T07:51:01.608Z,58.91
2023-05-07T07:52:05.178Z,58.54
2023-05-07T07:53:08.911Z,58.42
2023-05-07T07:54:11.921Z,58.53
2023-05-07T07:55:19.012Z,58.58
2023-05-07T07:56:22.281Z,58.57
2023-05-07T07:57:25.653Z,58.58
2023-05-07T07:58:28.777Z,58.54
2023-05-07T07:59:32.218Z,58.31
2023-05-07T08:00:35.479Z,58.16
2023-05-07T08:01:38.707Z,58.03
2023-05-07T08:02:42.166Z,57.09
2023-05-07T08:03:45.790Z,56.59
2023-05-07T08:04:49.042Z,56.55
2023-05-07T08:05:52.248Z,56.67
2023-05-07T08:06:55.442Z,56.69
2023-05-07T08:07:59.551Z,56.38
2023-05-07T08:09:05.733Z,56.08
2023-05-07T08:10:09.491Z,56.05
2023-05-07T08:11:12.917Z,56.86
2023-05-07T08:12:16.574Z,56.80
2023-05-07T08:13:19.865Z,56.46
2023-05-07T08:14:23.519Z,55.89
2023-05-07T08:15:26.698Z,56.27
2023-05-07T08:16:31.150Z,56.12
2023-05-07T08:17:34.710Z,55.77
2023-05-07T08:18:38.389Z,55.99
2023-05-07T08:19:41.659Z,54.90
2023-05-07T08:20:45.529Z,55.43
2023-05-07T08:21:51.908Z,54.76
2023-05-07T08:22:55.169Z,54.67
2023-05-07T08:23:58.434Z,54.67
2023-05-07T08:25:01.524Z,54.59
2023-05-07T08:26:05.328Z,54.22
2023-05-07T08:27:08.762Z,53.71
2023-05-07T08:28:12.123Z,54.58
2023-05-07T08:29:15.210Z,54.70
2023-05-07T08:30:18.745Z,54.09
2023-05-07T08:31:21.776Z,53.89
2023-05-07T08:32:25.103Z,54.37
2023-05-07T08:33:28.584Z,54.01
2023-05-07T08:34:31.657Z,53.63
2023-05-07T08:35:35.668Z,54.03
2023-05-07T08:36:38.807Z,53.87
2023-05-07T08:37:41.674Z,53.37
2023-05-07T08:38:46.779Z,53.22
2023-05-07T08:39:50.144Z,53.02
2023-05-07T08:40:56.832Z,53.18
2023-05-07T08:42:05.816Z,52.98
2023-05-07T08:43:15.970Z,52.08
2023-05-07T08:44:23.538Z,52.44
2023-05-07T08:45:29.132Z,52.12
2023-05-07T08:46:33.661Z,52.24
2023-05-07T08:47:45.550Z,52.68
2023-05-07T08:48:53.193Z,51.89
2023-05-07T08:49:56.414Z,52.05
2023-05-07T08:51:00.427Z,52.13
2023-05-07T08:52:03.707Z,51.90
2023-05-07T08:53:06.966Z,52.58
2023-05-07T08:54:11.719Z,52.72
2023-05-07T08:55:16.239Z,52.68
2023-05-07T08:56:22.542Z,51.58
2023-05-07T08:57:25.853Z,52.69
2023-05-07T08:58:29.289Z,53.07
2023-05-07T08:59:32.871Z,53.09
2023-05-07T09:00:37.547Z,53.39
2023-05-07T09:01:40.845Z,53.26
2023-05-07T09:02:43.935Z,53.35
2023-05-07T09:03:48.044Z,53.14
2023-05-07T09:04:52.009Z,53.43
2023-05-07T09:05:55.014Z,53.78
2023-05-07T09:07:04.714Z,53.41
2023-05-07T09:08:08.660Z,53.48
2023-05-07T09:09:15.797Z,53.43
2023-05-07T09:10:18.872Z,53.83
2023-05-07T09:11:26.111Z,53.96
2023-05-07T09:12:30.325Z,54.28
2023-05-07T09:13:33.277Z,54.02
2023-05-07T09:14:37.131Z,53.95
2023-05-07T09:15:40.587Z,54.30
2023-05-07T09:16:44.082Z,54.08
2023-05-07T09:17:46.955Z,54.02
2023-05-07T09:18:53.145Z,54.40
2023-05-07T09:19:56.462Z,54.31
2023-05-07T09:20:59.214Z,52.07
2023-05-07T09:22:03.745Z,52.87
2023-05-07T09:23:11.790Z,53.42
2023-05-07T09:24:17.013Z,53.71
2023-05-07T09:25:30.188Z,53.77
2023-05-07T09:26:34.944Z,53.39
2023-05-07T09:27:38.538Z,53.51
2023-05-07T09:28:45.422Z,53.80
2023-05-07T09:29:48.885Z,53.99
2023-05-07T09:30:52.099Z,53.83
2023-05-07T09:31:56.106Z,53.47
2023-05-07T09:33:00.702Z,52.96
2023-05-07T09:34:05.868Z,52.33
2023-05-07T09:35:17.977Z,53.01
2023-05-07T09:36:22.829Z,53.10
2023-05-07T09:37:27.959Z,52.77
2023-05-07T09:38:31.248Z,52.80
2023-05-07T09:39:44.440Z,53.27
2023-05-07T09:40:47.311Z,53.31
2023-05-07T09:41:52.235Z,52.90
2023-05-07T09:43:12.915Z,53.05
2023-05-07T09:44:18.773Z,52.43
2023-05-07T09:45:29.313Z,52.29
2023-05-07T09:46:35.960Z,52.44
2023-05-07T09:47:45.833Z,51.79
2023-05-07T09:48:49.845Z,51.09
2023-05-07T09:49:57.697Z,51.24
2023-05-07T09:51:03.635Z,51.67
2023-05-07T09:52:09.817Z,51.66
2023-05-07T09:53:15.846Z,51.51
2023-05-07T09:54:19.819Z,51.55
2023-05-07T09:55:25.440Z,51.50
2023-05-07T09:56:30.342Z,52.02
2023-05-07T09:57:35.825Z,51.59
2023-05-07T09:58:44.416Z,51.31
2023-05-07T09:59:48.453Z,51.22
2023-05-07T10:00:58.018Z,51.15
2023-05-07T10:02:04.841Z,51.11
2023-05-07T10:03:21.880Z,50.56
2023-05-07T10:04:46.276Z,51.23
2023-05-07T10:05:53.919Z,51.30
2023-05-07T10:07:17.938Z,51.59
2023-05-07T10:08:36.139Z,52.29
2023-05-07T10:09:48.851Z,51.99
2023-05-07T10:11:32.899Z,52.41
2023-05-07T10:12:41.517Z,52.41
2023-05-07T10:13:51.046Z,53.10
2023-05-07T10:14:57.598Z,52.91
2023-05-07T10:16:02.279Z,53.52
2023-05-07T10:17:09.434Z,54.09
2023-05-07T10:18:13.434Z,54.29
2023-05-07T10:19:18.030Z,54.77
2023-05-07T10:20:22.164Z,54.04
2023-05-07T10:21:28.034Z,53.61
2023-05-07T10:22:40.957Z,53.51
2023-05-07T10:23:51.098Z,53.64
2023-05-07T10:24:55.709Z,53.79
2023-05-07T10:26:01.390Z,53.50
2023-05-07T10:27:10.858Z,53.80
2023-05-07T10:28:14.456Z,54.32
2023-05-07T10:29:38.252Z,54.60
2023-05-07T10:30:57.625Z,53.87
2023-05-07T10:32:25.197Z,53.84
2023-05-07T10:33:43.014Z,53.47
2023-05-07T10:34:50.053Z,54.02
2023-05-07T10:35:59.384Z,53.89
2023-05-07T10:37:03.807Z,54.03
2023-05-07T10:38:07.558Z,54.28
2023-05-07T10:39:12.278Z,54.41
2023-05-07T10:40:15.468Z,54.50
2023-05-07T10:41:19.787Z,54.64
2023-05-07T10:42:22.938Z,55.10
2023-05-07T10:43:43.134Z,55.26
2023-05-07T10:44:46.877Z,55.35
2023-05-07T10:46:17.343Z,55.09
2023-05-07T10:47:25.448Z,55.08
2023-05-07T10:48:31.477Z,55.54
2023-05-07T10:49:47.409Z,55.98
2023-05-07T10:51:24.126Z,55.44
2023-05-07T10:52:36.182Z,55.10
2023-05-07T10:54:21.413Z,54.47
2023-05-07T10:55:31.527Z,55.05
2023-05-07T10:56:44.815Z,55.01
2023-05-07T10:57:54.880Z,55.19
2023-05-07T10:59:31.672Z,54.79
2023-05-07T11:00:39.255Z,55.05
2023-05-07T11:01:55.363Z,54.79
2023-05-07T11:03:13.276Z,54.75
2023-05-07T11:04:27.237Z,53.96
2023-05-07T11:05:40.316Z,54.10
2023-05-07T11:07:07.259Z,53.69
2023-05-07T11:08:11.458Z,53.91
2023-05-07T11:09:25.232Z,54.56
2023-05-07T11:10:50.867Z,54.59
2023-05-07T11:12:13.937Z,54.59
2023-05-07T11:13:46.247Z,54.46
2023-05-07T11:15:29.874Z,55.09
2023-05-07T11:16:34.554Z,55.59
2023-05-07T11:17:55.815Z,55.55
2023-05-07T11:18:59.116Z,54.87
2023-05-07T11:20:10.700Z,54.41
2023-05-07T11:21:40.957Z,54.00
2023-05-07T11:23:36.024Z,53.14
2023-05-07T11:24:51.280Z,52.72
2023-05-07T11:26:00.522Z,51.94
2023-05-07T11:27:04.012Z,52.65
2023-05-07T11:28:11.512Z,52.25
2023-05-07T11:29:23.382Z,52.82
2023-05-07T11:30:30.544Z,52.59
2023-05-07T11:31:33.510Z,52.24
2023-05-07T11:32:37.230Z,52.24
2023-05-07T11:33:40.596Z,51.37
2023-05-07T11:34:46.362Z,50.71
2023-05-07T11:35:49.597Z,50.31
2023-05-07T11:36:53.912Z,50.32
2023-05-07T11:38:01.952Z,51.08
2023-05-07T11:39:06.638Z,49.78
2023-05-07T11:40:12.024Z,49.70
2023-05-07T11:41:15.080Z,50.34
2023-05-07T11:42:31.646Z,49.89
2023-05-07T11:43:36.768Z,47.88
2023-05-07T11:44:47.298Z,48.59
2023-05-07T11:45:51.876Z,49.14
2023-05-07T11:46:54.815Z,46.79
2023-05-07T11:47:57.943Z,45.89
2023-05-07T11:49:01.790Z,46.50
2023-05-07T11:50:06.946Z,45.74
2023-05-07T11:51:10.086Z,45.52
2023-05-07T11:52:14.447Z,45.95
2023-05-07T11:53:18.269Z,45.64
2023-05-07T11:54:22.462Z,46.29
2023-05-07T11:55:25.838Z,46.54
2023-05-07T11:56:28.678Z,46.51
2023-05-07T11:57:33.540Z,46.18
2023-05-07T11:58:37.208Z,46.13
2023-05-07T11:59:45.455Z,44.91
2023-05-07T12:00:53.205Z,45.49
2023-05-07T12:02:00.310Z,44.47
2023-05-07T12:03:06.455Z,44.20
2023-05-07T12:04:09.695Z,41.94
2023-05-07T12:05:13.676Z,42.93
2023-05-07T12:06:17.867Z,43.26
2023-05-07T12:07:20.770Z,43.54
2023-05-07T12:08:23.540Z,42.09
2023-05-07T12:09:26.966Z,42.03
2023-05-07T12:10:30.085Z,41.87
2023-05-07T12:11:32.858Z,42.35
2023-05-07T12:12:43.220Z,41.79
2023-05-07T12:13:46.735Z,41.74
2023-05-07T12:14:49.744Z,41.18
2023-05-07T12:15:54.248Z,40.28
2023-05-07T12:16:57.364Z,40.37
2023-05-07T12:18:00.548Z,40.15
2023-05-07T12:19:03.496Z,39.26
2023-05-07T12:20:07.577Z,39.41
2023-05-07T12:21:11.160Z,40.03
2023-05-07T12:22:14.172Z,39.61
2023-05-07T12:23:17.477Z,39.21
2023-05-07T12:24:21.951Z,38.24
2023-05-07T12:25:25.011Z,38.41
2023-05-07T12:26:28.047Z,39.03
2023-05-07T12:27:31.653Z,38.68
2023-05-07T12:28:39.889Z,37.71
2023-05-07T12:29:49.726Z,38.16
2023-05-07T12:30:53.272Z,37.46
2023-05-07T12:31:56.353Z,37.79
2023-05-07T12:32:59.186Z,36.68
2023-05-07T12:34:03.531Z,36.60
2023-05-07T12:35:07.595Z,36.66
2023-05-07T12:36:13.874Z,36.34
2023-05-07T12:37:17.214Z,35.37
2023-05-07T12:38:20.415Z,35.05
2023-05-07T12:39:23.336Z,34.50
2023-05-07T12:40:36.444Z,34.18
2023-05-07T12:41:55.729Z,34.12
2023-05-07T12:43:00.875Z,34.60
2023-05-07T12:44:05.592Z,34.34
2023-05-07T12:45:18.419Z,34.56
2023-05-07T12:46:21.583Z,33.45
2023-05-07T12:47:24.525Z,34.18
2023-05-07T12:48:30.980Z,33.43
2023-05-07T12:49:38.820Z,33.25
2023-05-07T12:50:42.283Z,33.07
2023-05-07T12:51:45.398Z,33.08
2023-05-07T12:52:49.243Z,33.21
2023-05-07T12:53:57.397Z,32.93
2023-05-07T12:55:07.700Z,33.20
2023-05-07T12:56:11.007Z,31.26
2023-05-07T12:57:13.935Z,31.63
2023-05-07T12:58:26.119Z,31.39
2023-05-07T12:59:39.596Z,31.85
2023-05-07T13:00:44.186Z,29.43
2023-05-07T13:01:47.133Z,30.90
2023-05-07T13:02:50.169Z,31.14
2023-05-07T13:03:53.566Z,31.26
2023-05-07T13:04:56.748Z,30.67
2023-05-07T13:06:01.841Z,30.69
2023-05-07T13:07:04.644Z,30.84
2023-05-07T13:08:07.586Z,28.93
2023-05-07T13:09:10.443Z,29.23
2023-05-07T13:10:13.503Z,29.26
2023-05-07T13:11:16.603Z,29.48
2023-05-07T13:12:19.491Z,29.26
2023-05-07T13:13:22.571Z,29.21
2023-05-07T13:14:25.795Z,29.34
2023-05-07T13:15:28.844Z,29.34
2023-05-07T13:16:31.806Z,28.33
2023-05-07T13:17:34.812Z,28.52
2023-05-07T13:18:39.833Z,27.88
2023-05-07T13:19:42.842Z,28.40
2023-05-07T13:20:45.989Z,28.13
2023-05-07T13:21:50.737Z,28.29
2023-05-07T13:22:53.613Z,28.59
2023-05-07T13:23:56.504Z,28.30
2023-05-07T13:24:59.416Z,28.37
2023-05-07T13:26:08.469Z,28.42
2023-05-07T13:27:17.933Z,28.49
2023-05-07T13:28:21.369Z,27.60
2023-05-07T13:29:30.992Z,28.15
2023-05-07T13:30:33.879Z,27.44
2023-05-07T13:31:36.865Z,27.15
2023-05-07T13:32:39.959Z,26.38
2023-05-07T13:33:42.973Z,26.92
2023-05-07T13:34:45.862Z,27.24
2023-05-07T13:35:48.900Z,25.57
2023-05-07T13:36:52.350Z,25.84
2023-05-07T13:37:55.854Z,26.25
2023-05-07T13:39:00.570Z,26.22
2023-05-07T13:41:04.350Z,26.19
2023-05-07T13:42:07.934Z,26.77
2023-05-07T13:43:11.773Z,26.36
2023-05-07T13:44:15.239Z,24.94
2023-05-07T13:45:20.349Z,24.99
2023-05-07T13:46:23.851Z,25.11
2023-05-07T13:47:27.344Z,25.06
2023-05-07T13:48:30.695Z,25.46
2023-05-07T13:49:33.679Z,25.71
2023-05-07T13:50:36.760Z,25.55
2023-05-07T13:51:39.726Z,25.04
2023-05-07T13:52:46.448Z,25.21
2023-05-07T13:53:49.948Z,25.09
2023-05-07T13:54:53.482Z,24.82
2023-05-07T13:55:56.310Z,24.83
2023-05-07T13:56:59.221Z,24.66
2023-05-07T13:58:06.847Z,24.85
2023-05-07T13:59:10.371Z,24.86
2023-05-07T14:00:15.076Z,24.64
2023-05-07T14:01:18.050Z,24.78
2023-05-07T14:02:21.118Z,24.90
2023-05-07T14:03:24.501Z,24.29
2023-05-07T14:04:27.426Z,24.80